Time;durP1;ratioP1;P1;durP2;ratioP2;P2;SDS_P1;SDS_P2;PMS_P1;PMS_P2;Temp;Humidity;BMP_temperature;BMP_pressure;BME280_temperature;BME280_humidity;BME280_pressure;Samples;Min_cycle;Max_cycle;Signal;HPM_P1;HPM_P2
2023/05/11 00:00:32;;;;;;;13.43;8.27;;;12.60;99.90;;;;;;5006035;28;20116;-78
2023/05/11 00:02:58;;;;;;;12.10;8.00;;;12.60;99.90;;;;;;5028103;28;20057;-78
2023/05/11 00:05:24;;;;;;;13.50;8.80;;;12.50;99.90;;;;;;5008486;28;20068;-78
2023/05/11 00:07:49;;;;;;;12.95;9.57;;;12.50;99.90;;;;;;5023641;28;20040;-78
2023/05/11 00:10:15;;;;;;;11.13;7.00;;;12.50;99.90;;;;;;5024866;28;20381;-78
2023/05/11 00:12:41;;;;;;;10.45;7.60;;;12.60;99.90;;;;;;5023407;28;20061;-78
2023/05/11 00:15:07;;;;;;;10.63;7.32;;;12.60;99.90;;;;;;5006903;28;20044;-78
2023/05/11 00:17:32;;;;;;;14.20;9.13;;;12.60;99.90;;;;;;5005857;28;20030;-78
2023/05/11 00:19:58;;;;;;;13.63;9.57;;;12.60;99.90;;;;;;4987743;28;20132;-78
2023/05/11 00:22:24;;;;;;;16.98;10.25;;;12.60;99.90;;;;;;5025849;28;20079;-79
2023/05/11 00:24:50;;;;;;;12.70;8.50;;;12.70;99.90;;;;;;5021291;28;20045;-78
2023/05/11 00:27:15;;;;;;;13.75;8.25;;;12.70;99.90;;;;;;5018453;28;20060;-79
2023/05/11 00:29:41;;;;;;;15.57;8.80;;;12.60;99.90;;;;;;5022180;28;20475;-78
2023/05/11 00:32:07;;;;;;;12.80;8.80;;;12.60;99.90;;;;;;5005638;28;20420;-78
2023/05/11 00:34:33;;;;;;;14.73;8.90;;;12.60;99.90;;;;;;5005543;28;20033;-79
2023/05/11 00:36:59;;;;;;;14.27;9.70;;;12.60;99.90;;;;;;5007356;28;20029;-79
2023/05/11 00:39:24;;;;;;;15.90;10.05;;;12.60;99.90;;;;;;5006148;28;20041;-78
2023/05/11 00:41:50;;;;;;;13.75;8.50;;;12.60;99.90;;;;;;5024019;28;20085;-79
2023/05/11 00:44:16;;;;;;;14.30;8.93;;;12.60;99.90;;;;;;5006338;28;20480;-78
2023/05/11 00:46:42;;;;;;;16.98;10.88;;;12.60;99.90;;;;;;5026808;28;20038;-78
2023/05/11 00:49:08;;;;;;;16.10;10.38;;;12.60;99.90;;;;;;5021604;28;20041;-78
2023/05/11 00:51:35;;;;;;;16.08;11.55;;;12.60;99.90;;;;;;5024098;28;20033;-78
2023/05/11 00:54:01;;;;;;;13.77;9.32;;;12.50;99.90;;;;;;4988146;28;20041;-79
2023/05/11 00:56:27;;;;;;;13.77;8.77;;;12.50;99.90;;;;;;5007226;28;20044;-78
2023/05/11 00:58:53;;;;;;;14.55;9.43;;;12.50;99.90;;;;;;5003471;28;20061;-79
2023/05/11 01:01:19;;;;;;;16.00;10.07;;;12.50;99.90;;;;;;4988486;28;20033;-79
2023/05/11 01:03:46;;;;;;;13.20;9.18;;;12.50;99.90;;;;;;5023036;28;20037;-78
2023/05/11 01:06:17;;;;;;;17.40;9.82;;;12.50;99.90;;;;;;5021864;28;20141;-79
2023/05/11 01:08:53;;;;;;;15.43;10.05;;;13.00;99.90;;;;;;5021386;28;20030;-79
2023/05/11 01:11:48;;;;;;;17.08;10.88;;;12.50;99.90;;;;;;5014337;28;20080;-79
2023/05/11 01:14:22;;;;;;;18.23;11.52;;;12.50;99.90;;;;;;4982280;28;20061;-79
2023/05/11 01:16:55;;;;;;;17.35;11.55;;;12.50;99.90;;;;;;5028178;28;20037;-79
2023/05/11 01:20:15;;;;;;;18.92;10.93;;;12.40;99.90;;;;;;5010008;28;20060;-79
2023/05/11 01:23:11;;;;;;;19.33;12.13;;;12.40;99.90;;;;;;4996608;28;20064;-78
2023/05/11 01:25:52;;;;;;;18.75;11.13;;;12.40;99.90;;;;;;5023598;28;20116;-78
2023/05/11 01:28:51;;;;;;;14.77;10.18;;;12.40;99.90;;;;;;5014354;28;20400;-79
2023/05/11 01:31:20;;;;;;;15.23;9.57;;;12.40;99.90;;;;;;5008667;28;20052;-78
2023/05/11 01:33:57;;;;;;;17.77;11.40;;;12.40;99.90;;;;;;5031634;28;20037;-78
2023/05/11 01:36:31;;;;;;;16.13;10.18;;;12.50;99.90;;;;;;5024732;28;20049;-79
2023/05/11 01:39:02;;;;;;;18.88;12.32;;;12.50;99.90;;;;;;5015211;28;20050;-79
2023/05/11 01:41:30;;;;;;;20.77;13.30;;;12.50;99.90;;;;;;5005964;28;20045;-78
2023/05/11 01:43:59;;;;;;;19.27;12.55;;;12.50;99.90;;;;;;5028250;28;20030;-78
2023/05/11 01:46:27;;;;;;;20.02;11.77;;;12.50;99.90;;;;;;5006232;28;20107;-78
2023/05/11 01:48:56;;;;;;;18.15;11.57;;;12.50;99.90;;;;;;5007585;28;20124;-78
2023/05/11 01:51:24;;;;;;;17.35;11.05;;;12.40;99.90;;;;;;5012978;28;20506;-78
2023/05/11 01:53:52;;;;;;;20.58;12.32;;;12.40;99.90;;;;;;5032537;28;20046;-78
2023/05/11 01:56:21;;;;;;;17.60;11.02;;;12.40;99.90;;;;;;5022327;28;20038;-79
2023/05/11 01:58:49;;;;;;;19.00;11.13;;;12.40;99.90;;;;;;5005787;28;20050;-79
2023/05/11 02:01:16;;;;;;;18.98;12.02;;;12.40;99.90;;;;;;4998876;28;20045;-79
2023/05/11 02:03:42;;;;;;;19.20;12.18;;;12.40;99.90;;;;;;5025038;28;20041;-78
2023/05/11 02:06:10;;;;;;;17.85;10.80;;;12.40;99.90;;;;;;5028962;28;20120;-79
2023/05/11 02:08:38;;;;;;;18.58;11.07;;;12.30;99.90;;;;;;5026165;28;20045;-79
2023/05/11 02:11:05;;;;;;;18.65;11.10;;;12.40;99.90;;;;;;5012386;28;20086;-79
2023/05/11 02:13:33;;;;;;;21.08;11.45;;;12.40;99.90;;;;;;5002279;28;20476;-79
2023/05/11 02:16:04;;;;;;;21.02;12.60;;;12.40;99.90;;;;;;4990608;28;20049;-79
2023/05/11 02:18:31;;;;;;;17.15;11.38;;;12.40;99.90;;;;;;5017725;28;20044;-79
2023/05/11 02:20:59;;;;;;;22.92;12.98;;;12.30;99.90;;;;;;5022914;28;20038;-79
2023/05/11 02:23:26;;;;;;;15.00;9.93;;;12.40;99.90;;;;;;5011538;28;20455;-79
2023/05/11 02:25:53;;;;;;;25.10;15.45;;;12.30;99.90;;;;;;5005264;28;20057;-79
2023/05/11 02:28:19;;;;;;;20.05;12.20;;;12.30;99.90;;;;;;5022309;28;20049;-79
2023/05/11 02:30:47;;;;;;;26.42;15.18;;;12.40;99.90;;;;;;5023963;28;20041;-79
2023/05/11 02:33:29;;;;;;;21.70;13.50;;;12.40;99.90;;;;;;5033001;28;20038;-78
2023/05/11 02:35:56;;;;;;;29.67;15.63;;;12.40;99.90;;;;;;5024096;28;20044;-79
2023/05/11 02:38:30;;;;;;;24.30;13.50;;;12.40;99.90;;;;;;5010465;28;20116;-78
2023/05/11 02:41:01;;;;;;;23.23;13.82;;;12.40;99.90;;;;;;5025666;28;20076;-78
2023/05/11 02:43:32;;;;;;;23.92;13.15;;;12.40;99.90;;;;;;5020075;28;20045;-79
2023/05/11 02:46:04;;;;;;;19.15;11.85;;;12.40;99.90;;;;;;5009796;28;20046;-79
2023/05/11 02:48:36;;;;;;;22.13;12.40;;;12.30;99.90;;;;;;5005751;28;20224;-79
2023/05/11 02:51:05;;;;;;;20.45;12.18;;;12.30;99.90;;;;;;5007612;28;20049;-79
2023/05/11 02:53:32;;;;;;;19.98;12.25;;;12.40;99.90;;;;;;5027820;28;20115;-79
2023/05/11 02:55:59;;;;;;;22.58;12.32;;;12.30;99.90;;;;;;5005946;28;20158;-79
2023/05/11 02:58:25;;;;;;;22.02;11.55;;;12.30;99.90;;;;;;5016006;28;20503;-79
2023/05/11 03:00:51;;;;;;;19.75;11.95;;;12.30;99.90;;;;;;5027569;28;20033;-78
2023/05/11 03:03:16;;;;;;;16.45;10.02;;;12.30;99.90;;;;;;4999069;28;20041;-79
2023/05/11 03:05:42;;;;;;;18.50;10.07;;;12.30;99.90;;;;;;5017294;28;20041;-78
2023/05/11 03:08:08;;;;;;;15.05;9.45;;;12.30;99.90;;;;;;5024562;28;20105;-79
2023/05/11 03:10:33;;;;;;;16.77;8.93;;;12.30;99.90;;;;;;5022707;28;22907;-79
2023/05/11 03:13:00;;;;;;;18.10;10.25;;;12.30;99.90;;;;;;5022368;28;20104;-79
2023/05/11 03:15:26;;;;;;;17.00;9.98;;;12.30;99.90;;;;;;5023032;28;20044;-79
2023/05/11 03:17:54;;;;;;;20.17;11.23;;;12.20;99.90;;;;;;5031782;28;20041;-79
2023/05/11 03:20:21;;;;;;;27.45;10.82;;;12.20;99.90;;;;;;5019936;28;20034;-79
2023/05/11 03:22:48;;;;;;;22.25;11.75;;;12.20;99.90;;;;;;5020062;28;20073;-78
2023/05/11 03:25:15;;;;;;;19.35;11.13;;;12.20;99.90;;;;;;5021195;28;20044;-79
2023/05/11 03:27:42;;;;;;;31.77;15.35;;;12.30;99.90;;;;;;5025035;28;20052;-79
2023/05/11 03:30:09;;;;;;;28.23;14.57;;;12.20;99.90;;;;;;5015493;28;20044;-79
2023/05/11 03:32:35;;;;;;;21.77;11.90;;;12.20;99.90;;;;;;4998893;28;20049;-79
2023/05/11 03:35:01;;;;;;;28.17;14.60;;;12.20;99.90;;;;;;5002935;28;20486;-78
2023/05/11 03:37:30;;;;;;;26.52;13.32;;;12.20;99.90;;;;;;5027688;28;20077;-79
2023/05/11 03:39:58;;;;;;;34.85;16.25;;;12.20;99.90;;;;;;5010249;28;20037;-79
2023/05/11 03:42:26;;;;;;;43.22;18.45;;;12.20;99.90;;;;;;5016589;28;20284;-79
2023/05/11 03:44:57;;;;;;;37.38;16.88;;;12.20;99.90;;;;;;5006681;28;20038;-79
2023/05/11 03:47:24;;;;;;;35.22;16.45;;;12.20;99.90;;;;;;5018051;28;20038;-78
2023/05/11 03:49:51;;;;;;;45.45;17.88;;;12.20;99.90;;;;;;5019853;28;20038;-79
2023/05/11 03:52:18;;;;;;;45.97;20.98;;;12.20;99.90;;;;;;5001749;28;20046;-79
2023/05/11 03:54:44;;;;;;;39.50;18.65;;;12.10;99.90;;;;;;4985142;28;20061;-79
2023/05/11 03:57:10;;;;;;;49.35;20.80;;;12.20;99.90;;;;;;5025418;28;20033;-79
2023/05/11 03:59:38;;;;;;;52.33;20.98;;;12.20;99.90;;;;;;4988098;28;20045;-79
2023/05/11 04:02:04;;;;;;;49.40;23.60;;;12.10;99.90;;;;;;5003417;28;20044;-79
2023/05/11 04:04:30;;;;;;;49.58;22.10;;;12.10;99.90;;;;;;5025070;28;20128;-79
2023/05/11 04:06:57;;;;;;;42.60;18.10;;;12.10;99.90;;;;;;4990521;28;20045;-79
2023/05/11 04:09:23;;;;;;;47.42;20.80;;;12.10;99.90;;;;;;5005610;28;20037;-79
2023/05/11 04:11:49;;;;;;;41.65;18.50;;;12.10;99.90;;;;;;5018241;28;20076;-79
2023/05/11 04:14:16;;;;;;;43.22;20.27;;;12.10;99.90;;;;;;5029869;28;20045;-79
2023/05/11 04:16:45;;;;;;;45.58;20.42;;;12.10;99.90;;;;;;5024809;28;20045;-79
2023/05/11 04:19:11;;;;;;;45.55;21.30;;;12.10;99.90;;;;;;5003016;28;20065;-78
2023/05/11 04:21:37;;;;;;;44.22;19.70;;;12.10;99.90;;;;;;5018550;28;20038;-78
2023/05/11 04:24:03;;;;;;;33.03;16.00;;;12.10;99.90;;;;;;5009998;28;20033;-79
2023/05/11 04:26:29;;;;;;;39.53;16.48;;;12.10;99.90;;;;;;5015505;28;20043;-79
2023/05/11 04:28:55;;;;;;;38.50;18.20;;;12.10;99.90;;;;;;5017874;28;20034;-79
2023/05/11 04:31:20;;;;;;;40.22;17.38;;;12.10;99.90;;;;;;5020166;28;20071;-79
2023/05/11 04:33:46;;;;;;;41.97;18.20;;;12.10;99.90;;;;;;5017236;28;20041;-79
2023/05/11 04:36:15;;;;;;;40.05;16.75;;;12.10;99.90;;;;;;4997647;28;20428;-79
2023/05/11 04:38:40;;;;;;;35.00;15.38;;;12.10;99.90;;;;;;4999876;28;20053;-79
2023/05/11 04:41:07;;;;;;;28.13;13.48;;;12.10;99.90;;;;;;5021030;28;20037;-79
2023/05/11 04:43:34;;;;;;;32.65;14.85;;;12.10;99.90;;;;;;5024456;28;20224;-79
2023/05/11 04:46:00;;;;;;;32.13;13.82;;;12.10;99.90;;;;;;5018497;28;20037;-79
2023/05/11 04:48:26;;;;;;;36.33;15.50;;;12.10;99.90;;;;;;5006581;28;20072;-79
2023/05/11 04:50:53;;;;;;;30.60;13.90;;;12.10;99.90;;;;;;5008922;28;20052;-79
2023/05/11 04:53:19;;;;;;;30.73;14.10;;;12.10;99.90;;;;;;5023861;28;20042;-79
2023/05/11 04:55:45;;;;;;;25.67;11.98;;;12.10;99.90;;;;;;5025503;28;20030;-79
2023/05/11 04:58:10;;;;;;;30.58;14.15;;;12.00;99.90;;;;;;5007453;28;20034;-79
2023/05/11 05:00:36;;;;;;;33.55;15.63;;;12.00;99.90;;;;;;5002838;28;20061;-79
2023/05/11 05:03:02;;;;;;;29.10;14.25;;;12.10;99.90;;;;;;5003932;28;20042;-79
2023/05/11 05:05:28;;;;;;;26.02;13.40;;;12.00;99.90;;;;;;5021130;28;20042;-79
2023/05/11 05:07:57;;;;;;;33.38;17.00;;;12.00;99.90;;;;;;5019705;28;20164;-79
2023/05/11 05:10:23;;;;;;;25.65;12.65;;;12.00;99.90;;;;;;5010910;28;20061;-79
2023/05/11 05:12:49;;;;;;;25.25;13.85;;;12.00;99.90;;;;;;5003859;28;20108;-79
2023/05/11 05:15:15;;;;;;;31.23;14.75;;;12.80;99.90;;;;;;5020407;28;20038;-79
2023/05/11 05:17:40;;;;;;;29.15;14.10;;;12.00;99.90;;;;;;5021183;28;20548;-79
2023/05/11 05:20:15;;;;;;;25.20;13.35;;;12.00;99.90;;;;;;5013520;28;20464;-79
2023/05/11 05:22:41;;;;;;;25.85;14.32;;;12.10;99.90;;;;;;5020797;28;20052;-79
2023/05/11 05:25:07;;;;;;;25.50;12.98;;;12.10;99.90;;;;;;5024479;28;20041;-81
2023/05/11 05:27:33;;;;;;;27.67;13.70;;;12.10;99.90;;;;;;5001825;28;20125;-80
2023/05/11 05:29:59;;;;;;;26.52;12.48;;;12.10;99.90;;;;;;5014431;28;20128;-81
2023/05/11 05:32:25;;;;;;;30.38;14.63;;;12.20;99.90;;;;;;5025118;28;20038;-80
2023/05/11 05:34:51;;;;;;;27.35;13.30;;;12.20;99.90;;;;;;4988503;28;20042;-82
2023/05/11 05:37:17;;;;;;;23.42;12.55;;;12.20;99.90;;;;;;5010572;28;20050;-82
2023/05/11 05:39:42;;;;;;;30.58;15.50;;;12.20;99.90;;;;;;5015345;28;20033;-82
2023/05/11 05:42:08;;;;;;;32.13;15.65;;;12.20;99.90;;;;;;5015297;28;20046;-82
2023/05/11 05:44:34;;;;;;;29.10;14.73;;;12.20;99.90;;;;;;5008483;28;20133;-81
2023/05/11 05:46:59;;;;;;;30.90;15.63;;;12.20;99.90;;;;;;5014487;28;20056;-81
2023/05/11 05:49:25;;;;;;;29.17;14.35;;;12.20;99.90;;;;;;4996184;28;20061;-81
2023/05/11 05:51:51;;;;;;;58.10;14.65;;;12.30;99.90;;;;;;5007090;28;20038;-82
2023/05/11 05:54:17;;;;;;;28.50;14.93;;;12.30;99.90;;;;;;5010593;28;20045;-82
2023/05/11 05:56:43;;;;;;;32.05;15.40;;;12.20;99.90;;;;;;5006401;28;20049;-81
2023/05/11 05:59:09;;;;;;;26.55;13.20;;;12.20;99.90;;;;;;5013294;28;20034;-81
2023/05/11 06:01:36;;;;;;;28.13;14.15;;;12.20;99.90;;;;;;5019412;28;20073;-81
2023/05/11 06:04:02;;;;;;;26.13;13.52;;;12.20;99.90;;;;;;5021211;28;20042;-82
2023/05/11 06:06:28;;;;;;;28.20;14.48;;;12.20;99.90;;;;;;5024513;28;20551;-81
2023/05/11 06:08:54;;;;;;;26.75;12.65;;;12.30;99.90;;;;;;5014314;28;20052;-81
2023/05/11 06:11:20;;;;;;;24.73;13.57;;;12.30;99.90;;;;;;5015125;28;20104;-81
2023/05/11 06:13:46;;;;;;;26.10;13.75;;;12.30;99.90;;;;;;5009086;28;20030;-81
2023/05/11 06:16:12;;;;;;;31.25;14.27;;;12.30;99.90;;;;;;5005514;28;20052;-80
2023/05/11 06:18:37;;;;;;;27.33;13.80;;;12.30;99.90;;;;;;5017714;28;20373;-84
2023/05/11 06:21:03;;;;;;;23.70;13.60;;;12.30;99.90;;;;;;5024043;28;20399;-80
2023/05/11 06:23:29;;;;;;;25.45;13.55;;;12.40;99.90;;;;;;5003700;28;20038;-80
2023/05/11 06:25:55;;;;;;;27.38;11.80;;;12.40;99.90;;;;;;5017269;28;20094;-80
2023/05/11 06:28:23;;;;;;;22.63;12.88;;;12.50;99.90;;;;;;5003523;28;20041;-80
2023/05/11 06:30:49;;;;;;;22.63;11.82;;;12.40;99.90;;;;;;4996140;28;20056;-80
2023/05/11 06:33:14;;;;;;;20.48;12.52;;;12.40;99.90;;;;;;5013664;28;20038;-81
2023/05/11 06:35:40;;;;;;;22.98;13.43;;;12.40;99.90;;;;;;4996156;28;20042;-80
2023/05/11 06:38:06;;;;;;;26.40;14.07;;;12.50;99.90;;;;;;4983546;28;20034;-80
2023/05/11 06:40:31;;;;;;;53.38;15.57;;;12.50;99.90;;;;;;5012786;28;20150;-80
2023/05/11 06:42:57;;;;;;;27.27;13.90;;;12.50;99.90;;;;;;4987728;28;20046;-81
2023/05/11 06:45:26;;;;;;;25.77;14.98;;;12.50;99.90;;;;;;5012309;28;20038;-80
2023/05/11 06:47:51;;;;;;;21.08;12.93;;;12.50;99.90;;;;;;4997894;28;20037;-81
2023/05/11 06:50:17;;;;;;;24.35;14.30;;;12.60;99.90;;;;;;5014022;28;20048;-81
2023/05/11 06:52:43;;;;;;;29.45;16.63;;;12.70;99.90;;;;;;4998036;28;20049;-80
2023/05/11 06:55:12;;;;;;;25.95;13.85;;;12.80;99.90;;;;;;5016934;28;20488;-81
2023/05/11 06:57:37;;;;;;;31.58;15.45;;;12.80;99.90;;;;;;5013489;28;20038;-80
2023/05/11 07:00:04;;;;;;;26.75;13.90;;;12.90;99.90;;;;;;5014315;28;20029;-80
2023/05/11 07:02:30;;;;;;;23.90;14.32;;;13.00;99.90;;;;;;5005424;28;20087;-81
2023/05/11 07:04:57;;;;;;;23.92;13.98;;;13.00;99.90;;;;;;5014653;28;20062;-81
2023/05/11 07:07:23;;;;;;;24.25;13.68;;;13.00;99.90;;;;;;5014122;28;20452;-81
2023/05/11 07:09:49;;;;;;;26.05;14.85;;;13.10;99.90;;;;;;5005550;28;20065;-82
2023/05/11 07:12:14;;;;;;;24.98;14.73;;;13.10;99.90;;;;;;5019806;28;20325;-80
2023/05/11 07:14:41;;;;;;;25.20;14.15;;;13.10;99.90;;;;;;5010443;28;20058;-80
2023/05/11 07:17:09;;;;;;;20.10;12.07;;;13.10;99.90;;;;;;4995958;28;20077;-81
2023/05/11 07:19:35;;;;;;;21.50;12.73;;;13.10;99.90;;;;;;4978748;28;20480;-80
2023/05/11 07:22:01;;;;;;;21.73;13.40;;;13.10;99.90;;;;;;4981062;28;20041;-82
2023/05/11 07:24:27;;;;;;;21.85;13.10;;;13.10;99.90;;;;;;5017428;28;20042;-81
2023/05/11 07:26:53;;;;;;;23.00;13.48;;;13.00;99.90;;;;;;5008071;28;20056;-81
2023/05/11 07:29:18;;;;;;;24.42;14.15;;;13.10;99.90;;;;;;5001856;28;20103;-82
2023/05/11 07:31:44;;;;;;;21.55;13.35;;;13.10;99.90;;;;;;5011722;28;20030;-81
2023/05/11 07:34:10;;;;;;;21.65;13.85;;;13.10;99.90;;;;;;5003891;28;20041;-80
2023/05/11 07:36:36;;;;;;;24.60;14.23;;;13.10;99.90;;;;;;5000538;28;20049;-80
2023/05/11 07:39:01;;;;;;;20.50;11.93;;;13.10;99.90;;;;;;4994360;28;20038;-80
2023/05/11 07:41:28;;;;;;;21.85;13.05;;;13.10;99.90;;;;;;5015503;28;20041;-81
2023/05/11 07:43:56;;;;;;;20.83;13.52;;;13.20;99.90;;;;;;5003454;28;20038;-82
2023/05/11 07:46:22;;;;;;;23.80;13.73;;;13.20;99.90;;;;;;5021141;28;20045;-80
2023/05/11 07:48:47;;;;;;;20.85;12.18;;;13.20;99.90;;;;;;5011036;28;20046;-80
2023/05/11 07:51:13;;;;;;;25.02;15.15;;;13.20;99.90;;;;;;5013771;28;20048;-80
2023/05/11 07:53:39;;;;;;;21.65;14.02;;;13.20;99.90;;;;;;4999709;28;20413;-80
2023/05/11 07:56:05;;;;;;;25.13;14.07;;;13.30;99.90;;;;;;5016774;28;20599;-80
2023/05/11 07:58:31;;;;;;;19.95;13.30;;;13.30;99.90;;;;;;4978757;28;20038;-81
2023/05/11 08:00:57;;;;;;;21.60;13.40;;;13.30;99.90;;;;;;5011411;28;20493;-80
2023/05/11 08:03:23;;;;;;;20.50;13.25;;;13.30;99.90;;;;;;5011492;28;20057;-80
2023/05/11 08:05:49;;;;;;;18.88;13.10;;;13.30;99.90;;;;;;4988905;28;20049;-81
2023/05/11 08:08:15;;;;;;;20.67;13.63;;;13.30;99.90;;;;;;5022585;28;20054;-84
2023/05/11 08:10:41;;;;;;;17.95;11.07;;;13.30;99.90;;;;;;5027123;28;20042;-86
2023/05/11 08:13:07;;;;;;;18.20;12.13;;;13.30;99.90;;;;;;5001204;28;20128;-80
2023/05/11 08:15:32;;;;;;;20.92;12.80;;;13.30;99.90;;;;;;5018900;28;20480;-81
2023/05/11 08:17:59;;;;;;;19.00;12.13;;;13.30;99.90;;;;;;5021908;28;20052;-81
2023/05/11 08:20:25;;;;;;;21.92;14.82;;;13.30;99.90;;;;;;4994766;28;20485;-81
2023/05/11 08:22:51;;;;;;;19.10;12.98;;;13.30;99.90;;;;;;4997645;28;20129;-81
2023/05/11 08:25:17;;;;;;;23.35;14.10;;;13.30;99.90;;;;;;5001059;28;20124;-81
2023/05/11 08:27:42;;;;;;;17.33;11.60;;;13.30;99.90;;;;;;4999821;28;20483;-81
2023/05/11 08:30:09;;;;;;;18.15;12.73;;;13.30;99.90;;;;;;5015417;28;20120;-81
2023/05/11 08:32:35;;;;;;;21.42;14.05;;;13.40;99.90;;;;;;5010511;28;20045;-81
2023/05/11 08:35:02;;;;;;;18.23;12.70;;;13.40;99.90;;;;;;5015625;28;20057;-81
2023/05/11 08:37:29;;;;;;;22.45;14.20;;;13.40;99.90;;;;;;5005585;28;20034;-81
2023/05/11 08:39:55;;;;;;;21.77;14.13;;;13.40;99.90;;;;;;5001030;28;20042;-81
2023/05/11 08:42:23;;;;;;;21.80;13.98;;;13.50;99.90;;;;;;5018092;28;20103;-80
2023/05/11 08:44:51;;;;;;;20.35;13.60;;;13.50;99.90;;;;;;5003948;28;20034;-80
2023/05/11 08:47:17;;;;;;;17.30;11.15;;;13.50;99.90;;;;;;5000577;28;20073;-80
2023/05/11 08:49:43;;;;;;;19.23;12.93;;;13.50;99.90;;;;;;5009974;28;20077;-82
2023/05/11 08:52:11;;;;;;;19.60;12.82;;;13.60;99.90;;;;;;4988987;28;20096;-80
2023/05/11 08:54:37;;;;;;;18.92;12.40;;;13.60;99.90;;;;;;5017679;28;20076;-81
2023/05/11 08:57:03;;;;;;;20.65;12.93;;;13.70;99.90;;;;;;5012259;28;20038;-81
2023/05/11 08:59:29;;;;;;;16.40;10.82;;;13.70;99.90;;;;;;5011844;28;20060;-81
2023/05/11 09:01:58;;;;;;;18.40;11.20;;;13.70;99.90;;;;;;4985107;28;20038;-80
2023/05/11 09:04:25;;;;;;;15.45;10.65;;;13.70;99.90;;;;;;4998259;28;20042;-81
2023/05/11 09:06:53;;;;;;;14.85;10.70;;;13.80;99.90;;;;;;5005360;28;20125;-81
2023/05/11 09:09:19;;;;;;;17.15;11.95;;;13.80;99.90;;;;;;4990392;28;20576;-80
2023/05/11 09:11:45;;;;;;;18.10;12.05;;;13.80;99.90;;;;;;5002216;28;20036;-80
2023/05/11 09:14:12;;;;;;;16.20;11.52;;;13.80;99.90;;;;;;5001252;28;20045;-79
2023/05/11 09:16:38;;;;;;;18.40;12.07;;;13.90;99.90;;;;;;5018752;28;20040;-80
2023/05/11 09:19:04;;;;;;;20.75;12.10;;;13.80;99.90;;;;;;5020863;28;20109;-80
2023/05/11 09:21:30;;;;;;;15.55;10.38;;;13.90;99.90;;;;;;5003628;28;20046;-79
2023/05/11 09:24:00;;;;;;;15.32;10.50;;;13.80;99.90;;;;;;5012996;28;20041;-80
2023/05/11 09:26:29;;;;;;;13.00;9.52;;;13.80;99.90;;;;;;4994456;28;20096;-80
2023/05/11 09:28:58;;;;;;;15.98;11.23;;;13.80;99.90;;;;;;4981543;28;20289;-79
2023/05/11 09:31:44;;;;;;;15.07;10.90;;;13.80;99.90;;;;;;4987437;28;20503;-80
2023/05/11 09:34:21;;;;;;;12.50;9.02;;;13.90;99.90;;;;;;5000366;28;20100;-80
2023/05/11 09:36:54;;;;;;;15.07;10.75;;;13.90;99.90;;;;;;5005766;28;20052;-81
2023/05/11 09:39:34;;;;;;;14.13;10.70;;;13.90;99.90;;;;;;4998686;28;20042;-80
2023/05/11 09:42:20;;;;;;;17.17;11.00;;;14.00;99.90;;;;;;5018423;28;20042;-80
2023/05/11 09:44:47;;;;;;;16.23;10.45;;;14.00;99.90;;;;;;5007230;28;20042;-80
2023/05/11 09:47:21;;;;;;;15.63;11.40;;;14.10;99.90;;;;;;5016167;28;20041;-85
2023/05/11 09:49:47;;;;;;;15.98;11.35;;;14.20;99.90;;;;;;5000059;28;20631;-84
2023/05/11 09:52:15;;;;;;;16.27;10.55;;;14.30;99.90;;;;;;5008347;28;20135;-84
2023/05/11 09:54:47;;;;;;;15.95;10.77;;;14.20;99.90;;;;;;5022311;28;20488;-84
2023/05/11 09:57:27;;;;;;;17.85;11.88;;;14.40;99.90;;;;;;5003244;28;20053;-84
2023/05/11 09:59:54;;;;;;;15.90;11.40;;;14.30;99.90;;;;;;5014421;28;20036;-84
2023/05/11 10:02:28;;;;;;;15.57;10.55;;;14.30;99.90;;;;;;5004149;28;20130;-84
2023/05/11 10:04:56;;;;;;;16.20;11.57;;;14.30;99.90;;;;;;4992118;28;20069;-83
2023/05/11 10:07:35;;;;;;;15.90;10.52;;;14.80;99.90;;;;;;5000099;28;20083;-84
2023/05/11 10:10:10;;;;;;;16.45;11.15;;;14.40;99.90;;;;;;4990829;28;20156;-84
2023/05/11 10:12:39;;;;;;;17.23;12.13;;;14.50;99.90;;;;;;5019843;28;20108;-84
2023/05/11 10:15:06;;;;;;;16.60;10.48;;;14.50;99.90;;;;;;5001114;28;20073;-84
2023/05/11 10:17:33;;;;;;;15.35;10.00;;;14.50;99.90;;;;;;5001429;28;20034;-84
2023/05/11 10:20:00;;;;;;;16.70;10.80;;;14.60;99.90;;;;;;5021039;28;20081;-84
2023/05/11 10:22:28;;;;;;;13.93;10.40;;;14.70;99.90;;;;;;5018486;28;20046;-82
2023/05/11 10:24:56;;;;;;;14.35;9.45;;;14.70;99.90;;;;;;4982117;28;20041;-85
2023/05/11 10:27:22;;;;;;;16.02;10.73;;;14.80;99.90;;;;;;5007488;28;20196;-86
2023/05/11 10:29:51;;;;;;;15.98;10.43;;;14.90;99.90;;;;;;4997548;28;20049;-85
2023/05/11 10:32:18;;;;;;;14.77;9.63;;;15.00;99.90;;;;;;5017522;28;20042;-85
2023/05/11 10:34:46;;;;;;;14.52;10.15;;;15.10;99.90;;;;;;5026608;28;20045;-85
2023/05/11 10:37:13;;;;;;;15.18;9.95;;;15.30;99.90;;;;;;5012703;28;20049;-84
2023/05/11 10:39:40;;;;;;;13.68;9.23;;;15.40;99.90;;;;;;5023427;28;20037;-85
2023/05/11 10:42:41;;;;;;;13.00;9.05;;;15.60;99.90;;;;;;4998447;28;20033;-85
2023/05/11 10:45:27;;;;;;;15.00;9.52;;;15.70;99.90;;;;;;5017987;28;20095;-83
2023/05/11 10:48:11;;;;;;;12.75;9.48;;;15.90;99.90;;;;;;4995177;28;20034;-84
2023/05/11 10:51:04;;;;;;;13.57;8.77;;;16.00;99.90;;;;;;5015808;28;20516;-85
2023/05/11 10:53:39;;;;;;;13.38;8.57;;;16.10;99.90;;;;;;5000106;28;20049;-85
2023/05/11 10:56:24;;;;;;;10.57;8.30;;;16.10;99.90;;;;;;5046358;23;20061;-85
2023/05/11 10:59:15;;;;;;;12.88;7.93;;;16.20;99.90;;;;;;4990252;28;20049;-85
2023/05/11 11:01:42;;;;;;;12.18;7.32;;;16.20;99.90;;;;;;4995712;28;20049;-85
2023/05/11 11:04:10;;;;;;;13.35;7.03;;;16.20;99.90;;;;;;5020646;28;20054;-85
2023/05/11 11:06:38;;;;;;;11.13;7.60;;;16.30;99.90;;;;;;4996769;28;20054;-85
2023/05/11 11:09:12;;;;;;;13.43;7.07;;;16.40;99.90;;;;;;5016210;28;20096;-84
2023/05/11 11:11:41;;;;;;;11.27;6.57;;;16.40;99.90;;;;;;4994787;28;20045;-83
2023/05/11 11:14:08;;;;;;;9.98;6.65;;;16.50;99.90;;;;;;5035583;22;20630;-84
2023/05/11 11:16:38;;;;;;;11.68;7.28;;;16.60;99.90;;;;;;5027733;28;20680;-83
2023/05/11 11:19:29;;;;;;;9.60;6.78;;;16.70;99.90;;;;;;5022984;28;20125;-83
2023/05/11 11:21:59;;;;;;;9.35;6.68;;;16.70;99.90;;;;;;5011959;28;20399;-83
2023/05/11 11:24:40;;;;;;;15.13;7.43;;;16.70;99.90;;;;;;5028514;28;20037;-83
2023/05/11 11:27:07;;;;;;;8.73;6.38;;;16.80;99.90;;;;;;5007144;28;20764;-83
2023/05/11 11:29:34;;;;;;;9.95;6.15;;;16.80;99.90;;;;;;5008646;28;20590;-83
2023/05/11 11:32:18;;;;;;;12.48;6.35;;;16.90;99.90;;;;;;5023245;28;20044;-83
2023/05/11 11:34:48;;;;;;;11.23;7.15;;;16.90;99.90;;;;;;4992404;28;20318;-83
2023/05/11 11:37:15;;;;;;;9.90;6.18;;;17.00;99.90;;;;;;4992894;28;20045;-83
2023/05/11 11:39:41;;;;;;;12.52;5.65;;;17.10;99.90;;;;;;5007126;28;20045;-83
2023/05/11 11:42:38;;;;;;;11.75;5.53;;;17.20;99.90;;;;;;5023863;28;20038;-83
2023/05/11 11:45:29;;;;;;;8.25;4.50;;;17.30;99.90;;;;;;4995127;28;20068;-84
2023/05/11 11:48:10;;;;;;;8.40;4.57;;;17.40;99.90;;;;;;5000583;28;20060;-83
2023/05/11 11:50:36;;;;;;;7.95;4.60;;;17.40;99.90;;;;;;4993280;28;20130;-83
2023/05/11 11:53:02;;;;;;;8.40;4.60;;;17.60;99.90;;;;;;4995350;28;20050;-85
2023/05/11 11:55:48;;;;;;;6.78;4.10;;;17.60;99.90;;;;;;4995013;28;20045;-83
2023/05/11 11:58:45;;;;;;;7.70;4.18;;;17.70;99.90;;;;;;5003676;28;20034;-84
2023/05/11 12:01:26;;;;;;;7.30;3.70;;;17.80;99.90;;;;;;5012086;28;20042;-83
2023/05/11 12:04:04;;;;;;;6.20;2.97;;;17.90;99.90;;;;;;4996779;28;20404;-84
2023/05/11 12:06:38;;;;;;;8.68;3.17;;;18.00;99.90;;;;;;4993876;28;20246;-84
2023/05/11 12:09:07;;;;;;;5.80;2.70;;;18.10;99.90;;;;;;5012066;28;20041;-83
2023/05/11 12:11:33;;;;;;;4.20;1.92;;;18.20;99.90;;;;;;5020254;28;20172;-84
2023/05/11 12:14:00;;;;;;;8.25;2.30;;;18.30;99.90;;;;;;5016549;28;20053;-83
2023/05/11 12:16:27;;;;;;;6.07;2.40;;;18.40;99.90;;;;;;5012802;28;20050;-82
2023/05/11 12:18:59;;;;;;;6.30;2.50;;;18.30;99.90;;;;;;5001084;28;20041;-82
2023/05/11 12:21:30;;;;;;;4.63;1.85;;;18.30;99.90;;;;;;5012614;28;20048;-82
2023/05/11 12:24:04;;;;;;;4.03;2.00;;;18.30;99.90;;;;;;4999417;28;20491;-83
2023/05/11 12:26:33;;;;;;;4.95;2.10;;;18.20;99.90;;;;;;5010427;28;20052;-82
2023/05/11 12:29:12;;;;;;;6.43;2.45;;;18.10;99.90;;;;;;5001028;28;20116;-81
2023/05/11 12:31:40;;;;;;;5.82;2.53;;;18.00;99.90;;;;;;4996239;28;20121;-81
2023/05/11 12:34:06;;;;;;;8.85;2.17;;;18.00;99.90;;;;;;5018374;28;20088;-81
2023/05/11 12:36:33;;;;;;;7.80;2.03;;;18.00;99.90;;;;;;5012690;28;20034;-83
2023/05/11 12:38:59;;;;;;;6.95;2.55;;;18.00;99.90;;;;;;4992693;28;20394;-78